Centre Hospitalier Heliport

FR-0029 · Allier, Auvergne-Rhône-Alpes, Francja

Historia METAR FR-0029 · Centre Hospitalier Heliport

Poniżej widzisz METAR-y z ostatnich kilku dni. Wybierz rok, aby przeglądać starsze METAR-y, począwszy od roku 2007.

17 czerwca 2024

Czas Kod Pogoda Temp. Widoczność Sufit Wiatr METAR/SPECI
08:30
V
15 °C 8 km - Var Var 2 kt METAR LFLV 170630Z AUTO VRB02KT 8000 RA //////CB 15/15 Q1014
08:30
V
15 °C 8 km - Var Var 2 kt METAR LFLV 170630Z AUTO VRB02KT 8000 RA ///CB 15/15 Q1014
08:00
I
15 °C 2,7 km 6.600 ft Var Var 2 kt METAR LFLV 170600Z AUTO VRB02KT 2700 RA BR SCT049/// OVC066/// //////CB 15/15 Q1014

16 czerwca 2024

Czas Kod Pogoda Temp. Widoczność Sufit Wiatr METAR/SPECI
20:00
V
21 °C 10 km+ - 200° 200° 4 kt METAR LFLV 161800Z AUTO 20004KT 170V230 CAVOK 21/14 Q1011
19:30
V
21 °C 10 km+ - 200° 200° 6 kt METAR LFLV 161730Z AUTO 20006KT 170V240 CAVOK 21/13 Q1011
19:00
V
21 °C 10 km+ - 200° 200° 6 kt METAR LFLV 161700Z AUTO 20006KT 160V260 CAVOK 21/13 Q1011
18:30
V
21 °C 10 km+ 6.200 ft 210° 210° 7 kt METAR LFLV 161630Z AUTO 21007KT 170V240 9999 FEW045/// BKN062/// BKN160/// //////TCU 21/14 Q1011
18:00
V
21 °C 10 km+ 4.600 ft 200° 200° 5 kt METAR LFLV 161600Z AUTO 20005KT 160V240 9999 BKN046 BKN054 OVC074 21/13 Q1012
17:30
V
21 °C 10 km+ 4.600 ft 180° 180° 8 kt METAR LFLV 161530Z AUTO 18008KT 150V220 9999 BKN046 BKN054 OVC100 21/13 Q1012
17:00
V
21 °C 10 km+ 4.700 ft 190° 190° 6 kt METAR LFLV 161500Z AUTO 19006KT 150V260 9999 OVC047 21/13 Q1012
16:30
V
21 °C 10 km+ 4.400 ft 210° 210° 6 kt METAR LFLV 161430Z AUTO 21006KT 150V250 9999 BKN044 OVC050 21/13 Q1012
16:00
V
21 °C 10 km+ 4.700 ft 220° 220° 8 kt METAR LFLV 161400Z AUTO 22008KT 160V270 9999 BKN047 BKN054 BKN210 21/13 Q1011
15:30
V
21 °C 10 km+ 16.000 ft 210° 210° 7 kt METAR LFLV 161330Z AUTO 21007KT 150V280 9999 FEW050 SCT064 OVC160 21/13 Q1012
15:00
V
22 °C 10 km+ 12.000 ft 210° 210° 8 kt METAR LFLV 161300Z AUTO 21008KT 170V290 9999 FEW047 BKN120 BKN140 22/12 Q1011
14:30
V
21 °C 10 km+ 13.000 ft 210° 210° 7 kt METAR LFLV 161230Z AUTO 21007KT 150V290 9999 FEW042 BKN130 21/14 Q1011
14:00
V
21 °C 10 km+ 8.200 ft 200° 200° 8 kt METAR LFLV 161200Z AUTO 20008KT 150V260 9999 FEW040 SCT046 BKN082 21/13 Q1011
13:30
V
21 °C 10 km+ 4.400 ft 210° 210° 8 kt METAR LFLV 161130Z AUTO 21008KT 150V280 9999 BKN044 OVC084 21/13 Q1012
13:00
V
22 °C 10 km+ 4.100 ft 190° 190° 10 kt METAR LFLV 161100Z AUTO 19010KT 140V250 9999 BKN041 OVC049 22/13 Q1011
12:30
V
20 °C 10 km+ 4.000 ft 200° 200° 8 kt METAR LFLV 161030Z AUTO 20008KT 150V240 9999 OVC040 20/12 Q1012
12:00
V
20 °C 10 km+ - 180° 180° 8 kt METAR LFLV 161000Z AUTO 18008KT 140V220 9999 FEW041 SCT110 20/12 Q1012
11:30
V
18 °C 10 km+ - 190° 190° 9 kt METAR LFLV 160930Z AUTO 19009KT 150V230 CAVOK 18/11 Q1012
11:00
V
17 °C 10 km+ - 180° 180° 9 kt METAR LFLV 160900Z AUTO 18009KT 150V220 CAVOK 17/10 Q1012
10:30
V
16 °C 10 km+ 7.400 ft 180° 180° 6 kt METAR LFLV 160830Z AUTO 18006KT 150V230 9999 FEW054 BKN074 OVC094 16/10 Q1012
10:00
V
14 °C 10 km+ - 190° 190° 3 kt METAR LFLV 160800Z AUTO 19003KT 150V250 9999 -RA ///TCU 14/10 Q1012
09:30
V
14 °C 10 km+ - 210° 210° 3 kt METAR LFLV 160730Z AUTO 21003KT 170V270 9999 -RA //////TCU 14/10 Q1012
09:00
V
13 °C 10 km+ - 200° 200° 4 kt METAR LFLV 160700Z AUTO 20004KT 160V250 9999 //////TCU 13/10 Q1012
08:30
V
13 °C 10 km+ 5.800 ft 200° 200° 3 kt METAR LFLV 160630Z AUTO 20003KT 160V240 9999 BKN058 OVC096 13/09 Q1012
08:00
V
12 °C 10 km+ - 180° 180° 5 kt METAR LFLV 160600Z AUTO 18005KT 150V210 CAVOK 12/09 Q1012

15 czerwca 2024

Czas Kod Pogoda Temp. Widoczność Sufit Wiatr METAR/SPECI
20:00
V
17 °C 10 km+ 5.400 ft 240° 240° 3 kt METAR LFLV 151800Z AUTO 24003KT 180V330 9999 SCT045/// BKN054/// BKN066/// //////TCU 17/11 Q1013
19:30
V
19 °C 10 km+ 8.800 ft 210° 210° 7 kt METAR LFLV 151730Z AUTO 21007KT 140V300 9999 SCT045/// SCT052/// BKN088/// ///CB 19/11 Q1012
19:00
V
19 °C 10 km+ 9.200 ft Var Var 5 kt METAR LFLV 151700Z AUTO VRB05KT 9999 SCT039 SCT047 BKN092 19/11 Q1012
18:30
V
17 °C 10 km+ 5.400 ft Var Var 3 kt METAR LFLV 151630Z AUTO VRB03KT 9999 FEW009/// SCT047/// BKN054/// ///TCU 17/13 Q1012
18:00
V
18 °C 10 km+ - 260° 260° 4 kt METAR LFLV 151600Z AUTO 26004KT 160V330 9999 ///TCU 18/12 Q1012
17:30
V
17 °C 10 km+ 6.800 ft 260° 260° 5 kt METAR LFLV 151530Z AUTO 26005KT 190V330 9999 FEW052/// BKN068/// OVC084/// ///TCU 17/11 Q1012
17:00
V
16 °C 10 km+ 4.700 ft Var Var 7 - 19 kt METAR LFLV 151500Z AUTO VRB07G19KT 9999 SCT036/// BKN047/// BKN074/// ///CB 16/11 Q1013
16:30
V
20 °C 10 km+ 7.400 ft 200° 200° 9 kt METAR LFLV 151430Z AUTO 20009KT 160V240 9999 SCT040/// SCT056/// BKN074/// //////CB 20/11 Q1012
16:00
V
18 °C 10 km+ 3.700 ft Var Var 2 kt METAR LFLV 151400Z AUTO VRB02KT 9999 BKN037 BKN052 BKN070 18/11 Q1012
15:30
V
18 °C 10 km+ - Var Var 3 kt METAR LFLV 151330Z AUTO VRB03KT CAVOK 18/11 Q1013
15:00
V
17 °C 10 km+ - 280° 280° 6 kt METAR LFLV 151300Z AUTO 28006KT 210V350 CAVOK 17/11 Q1013
14:30
V
18 °C 10 km+ 6.200 ft 290° 290° 6 - 17 kt METAR LFLV 151230Z AUTO 29006G17KT 210V360 9999 FEW046 BKN062 BKN076 18/11 Q1013
14:00
V
18 °C 10 km+ 6.400 ft Var Var 5 kt METAR LFLV 151200Z AUTO VRB05KT 9999 SCT044/// BKN064/// OVC082/// ///TCU 18/09 Q1013
13:30
V
18 °C 10 km+ - 190° 190° 7 kt METAR LFLV 151130Z AUTO 19007KT 160V220 9999 ///TCU 18/11 Q1013
13:00
V
17 °C 10 km+ 4.700 ft 210° 210° 8 kt METAR LFLV 151100Z AUTO 21008KT 160V270 9999 FEW034 SCT041 BKN047 17/11 Q1013
12:30
V
18 °C 10 km+ 7.800 ft 200° 200° 6 kt METAR LFLV 151030Z AUTO 20006KT 160V260 9999 FEW046 BKN078 18/11 Q1013
12:00
V
16 °C 10 km+ 5.600 ft 190° 190° 5 kt METAR LFLV 151000Z AUTO 19005KT 160V250 9999 BKN056 OVC066 16/10 Q1014
11:30
V
14 °C 10 km+ 5.200 ft 200° 200° 5 kt METAR LFLV 150930Z AUTO 20005KT 150V240 9999 OVC052 14/10 Q1014
11:00
V
14 °C 10 km+ 3.900 ft 220° 220° 7 kt METAR LFLV 150900Z AUTO 22007KT 150V280 9999 -RA BKN039 OVC047 14/09 Q1014
10:30
V
15 °C 10 km+ 3.900 ft Var Var 6 kt METAR LFLV 150830Z AUTO VRB06KT 9999 BKN039 OVC048 15/09 Q1014
10:00
V
15 °C 10 km+ 4.300 ft 190° 190° 4 kt METAR LFLV 150800Z AUTO 19004KT 140V240 9999 FEW033 BKN043 OVC050 15/10 Q1014
09:30
V
15 °C 10 km+ 4.500 ft Var Var 3 kt METAR LFLV 150730Z AUTO VRB03KT 9999 OVC045 15/10 Q1014
09:00
V
15 °C 10 km+ 5.200 ft 210° 210° 5 kt METAR LFLV 150700Z AUTO 21005KT 170V270 9999 SCT045 BKN052 OVC068 15/08 Q1014
08:30
V
16 °C 10 km+ 5.400 ft 190° 190° 6 kt METAR LFLV 150630Z AUTO 19006KT 150V250 9999 BKN054 OVC072 16/10 Q1013
08:00
V
14 °C 10 km+ 6.600 ft 180° 180° 4 kt METAR LFLV 150600Z AUTO 18004KT 150V230 9999 SCT056 BKN066 OVC078 14/09 Q1013
Zgłoś zmianę